Terminal Aerodrome Forecast
Issued by NWS

Current Version | Previous Version | Graphics & Text | Print | Product List | Glossary On
Versions: 1 2 3 4 5 6 7 8 9 10 11 12 13 14 15 16
000
FTUS41 KPBZ 190520
TAFHLG
TAF
KHLG 190520Z 1906/2006 24003KT P6SM SCT050
     FM191400 24008KT P6SM BKN100
     FM191900 25010KT P6SM VCTS BKN040CB
      TEMPO 1920/1922 5SM -TSRA
     FM192300 29005KT P6SM SCT040=

USA.gov is the U.S. government's official web portal to all federal, state and local government web resources and services.